createdAt,value
2018-01-26T00:00:46.187Z,29.67
2018-01-26T00:03:14.120Z,27.70
2018-01-26T00:05:42.001Z,28.70
2018-01-26T00:08:09.838Z,25.33
2018-01-26T00:10:37.711Z,27.13
2018-01-26T00:13:05.616Z,28.20
2018-01-26T00:15:33.508Z,27.30
2018-01-26T00:18:01.367Z,28.07
2018-01-26T00:20:29.237Z,29.80
2018-01-26T00:22:57.083Z,30.10
2018-01-26T00:25:24.921Z,29.00
2018-01-26T00:27:52.782Z,29.77
2018-01-26T00:30:20.631Z,27.93
2018-01-26T00:32:48.479Z,27.53
2018-01-26T00:35:16.338Z,28.70
2018-01-26T00:37:44.171Z,29.60
2018-01-26T00:40:12.011Z,29.87
2018-01-26T00:42:39.879Z,29.23
2018-01-26T00:45:07.753Z,28.67
2018-01-26T00:47:35.591Z,29.37
2018-01-26T00:50:03.454Z,30.13
2018-01-26T00:52:31.295Z,28.30
2018-01-26T00:54:59.163Z,29.13
2018-01-26T00:57:27.039Z,29.37
2018-01-26T00:59:54.940Z,30.97
2018-01-26T01:02:22.798Z,30.30
2018-01-26T01:04:50.692Z,30.57
2018-01-26T01:07:18.516Z,31.33
2018-01-26T01:09:46.335Z,33.67
2018-01-26T01:12:14.198Z,32.27
2018-01-26T01:14:42.048Z,30.70
2018-01-26T01:17:09.915Z,32.63
2018-01-26T01:19:37.783Z,28.87
2018-01-26T01:22:05.619Z,31.70
2018-01-26T01:24:33.464Z,31.10
2018-01-26T01:27:01.325Z,32.70
2018-01-26T01:29:29.176Z,31.70
2018-01-26T01:31:57.053Z,32.50
2018-01-26T01:34:24.914Z,30.30
2018-01-26T01:36:52.760Z,32.07
2018-01-26T01:39:20.599Z,29.80
2018-01-26T01:41:48.473Z,29.90
2018-01-26T01:44:16.351Z,31.47
2018-01-26T01:46:44.181Z,30.67
2018-01-26T01:49:15.003Z,29.83
2018-01-26T01:51:42.852Z,27.90
2018-01-26T01:54:10.688Z,32.50
2018-01-26T01:56:38.558Z,30.80
2018-01-26T01:59:06.436Z,30.13
2018-01-26T02:01:35.207Z,30.73
2018-01-26T02:04:03.090Z,31.30
2018-01-26T02:06:30.926Z,29.70
2018-01-26T02:08:58.769Z,32.70
2018-01-26T02:11:26.646Z,29.77
2018-01-26T02:13:54.481Z,31.80
2018-01-26T02:16:22.313Z,30.10
2018-01-26T02:18:50.177Z,30.00
2018-01-26T02:21:18.011Z,32.50
2018-01-26T02:23:58.068Z,30.30
2018-01-26T02:26:26.071Z,28.03
2018-01-26T02:28:54.055Z,27.20
2018-01-26T02:31:22.056Z,27.13
2018-01-26T02:33:50.037Z,25.17
2018-01-26T02:36:18.035Z,27.67
2018-01-26T02:38:45.927Z,25.30
2018-01-26T02:41:13.762Z,27.00
2018-01-26T02:43:41.647Z,27.40
2018-01-26T02:46:09.512Z,26.67
2018-01-26T02:48:37.348Z,22.67
2018-01-26T02:51:05.215Z,24.63
2018-01-26T02:53:33.078Z,24.00
2018-01-26T02:56:00.907Z,24.67
2018-01-26T02:58:28.745Z,24.50
2018-01-26T03:00:56.600Z,17.53
2018-01-26T03:03:25.269Z,20.20
2018-01-26T03:05:53.108Z,23.00
2018-01-26T03:08:20.972Z,23.20
2018-01-26T03:10:48.807Z,24.23
2018-01-26T03:13:16.636Z,25.60
2018-01-26T03:15:44.504Z,25.77
2018-01-26T03:18:12.327Z,30.50
2018-01-26T03:20:40.154Z,30.70
2018-01-26T03:23:08.047Z,34.03
2018-01-26T03:25:35.879Z,30.50
2018-01-26T03:28:03.741Z,31.30
2018-01-26T03:30:31.609Z,32.30
2018-01-26T03:32:59.463Z,30.90
2018-01-26T03:35:27.332Z,31.47
2018-01-26T03:37:55.197Z,30.90
2018-01-26T03:40:23.040Z,31.63
2018-01-26T03:42:50.871Z,31.77
2018-01-26T03:45:18.729Z,31.40
2018-01-26T03:47:46.564Z,30.03
2018-01-26T03:50:14.404Z,29.57
2018-01-26T03:52:42.265Z,28.27
2018-01-26T03:55:10.103Z,29.17
2018-01-26T03:57:37.935Z,27.33
2018-01-26T04:00:05.811Z,25.07
2018-01-26T04:02:34.147Z,23.47
2018-01-26T04:05:02.007Z,25.10
2018-01-26T04:07:29.872Z,25.70
2018-01-26T04:09:57.742Z,24.47
2018-01-26T04:12:25.580Z,25.20
2018-01-26T04:14:53.427Z,22.57
2018-01-26T04:17:21.259Z,23.20
2018-01-26T04:19:49.090Z,24.03
2018-01-26T04:22:16.956Z,21.97
2018-01-26T04:24:44.783Z,20.90
2018-01-26T04:27:12.624Z,27.30
2018-01-26T04:29:40.515Z,30.07
2018-01-26T04:32:08.347Z,29.63
2018-01-26T04:34:36.187Z,30.60
2018-01-26T04:37:04.057Z,32.17
2018-01-26T04:39:31.894Z,31.50
2018-01-26T04:41:59.767Z,32.10
2018-01-26T04:44:27.635Z,31.97
2018-01-26T04:46:55.473Z,32.40
2018-01-26T04:49:23.301Z,32.07
2018-01-26T04:51:51.181Z,34.67
2018-01-26T04:54:19.007Z,33.97
2018-01-26T04:56:46.835Z,36.17
2018-01-26T04:59:14.691Z,33.47
2018-01-26T05:01:42.530Z,34.40
2018-01-26T05:04:10.371Z,37.70
2018-01-26T05:06:38.272Z,36.80
2018-01-26T05:09:06.115Z,37.13
2018-01-26T05:11:33.968Z,37.40
2018-01-26T05:14:01.841Z,39.50
2018-01-26T05:16:29.701Z,40.10
2018-01-26T05:18:57.544Z,40.63
2018-01-26T05:21:25.428Z,38.43
2018-01-26T05:23:53.287Z,37.63
2018-01-26T05:26:21.124Z,37.67
2018-01-26T05:28:48.987Z,39.33
2018-01-26T05:31:16.828Z,39.27
2018-01-26T05:33:44.661Z,40.80
2018-01-26T05:36:12.545Z,40.37
2018-01-26T05:38:40.403Z,40.00
2018-01-26T05:41:08.240Z,40.93
2018-01-26T05:43:36.140Z,39.60
2018-01-26T05:46:03.984Z,42.93
2018-01-26T05:48:31.825Z,39.80
2018-01-26T05:51:00.513Z,40.83
2018-01-26T05:53:28.345Z,40.60
2018-01-26T05:55:56.188Z,42.50
2018-01-26T05:58:24.055Z,43.60
2018-01-26T06:00:51.895Z,41.90
2018-01-26T06:03:19.732Z,45.30
2018-01-26T06:05:47.591Z,43.67
2018-01-26T06:08:15.463Z,42.20
2018-01-26T06:10:43.312Z,41.87
2018-01-26T06:13:11.205Z,43.90
2018-01-26T06:15:39.080Z,44.30
2018-01-26T06:18:06.964Z,45.23
2018-01-26T06:20:34.827Z,45.30
2018-01-26T06:23:02.675Z,45.90
2018-01-26T06:25:30.547Z,45.13
2018-01-26T06:27:58.431Z,45.33
2018-01-26T06:30:26.315Z,43.63
2018-01-26T06:32:54.214Z,42.80
2018-01-26T06:35:22.094Z,43.70
2018-01-26T06:37:49.935Z,45.10
2018-01-26T06:40:17.792Z,46.10
2018-01-26T06:42:45.667Z,43.87
2018-01-26T06:45:13.523Z,46.80
2018-01-26T06:47:41.384Z,45.80
2018-01-26T06:50:09.260Z,44.73
2018-01-26T06:52:37.111Z,45.20
2018-01-26T06:55:04.956Z,45.27
2018-01-26T06:57:32.896Z,47.77
2018-01-26T07:00:00.716Z,47.10
2018-01-26T07:02:28.545Z,47.63
2018-01-26T07:04:56.415Z,46.00
2018-01-26T07:07:24.266Z,47.87
2018-01-26T07:09:52.143Z,45.73
2018-01-26T07:12:20.024Z,45.37
2018-01-26T07:14:47.909Z,47.07
2018-01-26T07:17:16.562Z,44.37
2018-01-26T07:19:44.457Z,44.40
2018-01-26T07:22:12.291Z,45.17
2018-01-26T07:24:40.177Z,44.87
2018-01-26T07:27:08.887Z,46.70
2018-01-26T07:29:36.753Z,46.60
2018-01-26T07:32:04.637Z,48.67
2018-01-26T07:34:32.547Z,49.80
2018-01-26T07:37:00.383Z,51.70
2018-01-26T07:39:28.236Z,48.90
2018-01-26T07:41:56.118Z,48.97
2018-01-26T07:44:24.111Z,47.23
2018-01-26T07:46:51.972Z,49.07
2018-01-26T07:49:19.851Z,49.20
2018-01-26T07:51:47.707Z,49.67
2018-01-26T07:54:16.099Z,48.97
2018-01-26T07:56:43.970Z,48.63
2018-01-26T07:59:11.815Z,49.20
2018-01-26T08:01:39.664Z,51.77
2018-01-26T08:04:07.531Z,51.47
2018-01-26T08:06:35.407Z,64.10
2018-01-26T08:09:03.583Z,51.90
2018-01-26T08:11:31.526Z,52.53
2018-01-26T08:13:59.373Z,55.07
2018-01-26T08:16:27.220Z,53.13
2018-01-26T08:18:55.091Z,55.47
2018-01-26T08:21:22.953Z,52.50
2018-01-26T08:23:51.024Z,52.77
2018-01-26T08:26:18.976Z,52.43
2018-01-26T08:28:47.839Z,52.97
2018-01-26T08:31:15.893Z,52.53
2018-01-26T08:33:43.787Z,50.97
2018-01-26T08:36:11.692Z,52.23
2018-01-26T08:38:39.551Z,49.20
2018-01-26T08:41:07.460Z,48.90
2018-01-26T08:43:35.314Z,51.90
2018-01-26T08:46:03.336Z,49.10
2018-01-26T08:48:31.247Z,49.50
2018-01-26T08:50:59.128Z,48.80
2018-01-26T08:53:27.004Z,48.60
2018-01-26T08:55:55.534Z,50.53
2018-01-26T08:58:23.550Z,48.50
2018-01-26T09:00:51.483Z,48.57
2018-01-26T09:03:19.427Z,46.77
2018-01-26T09:05:47.317Z,48.17
2018-01-26T09:08:15.282Z,47.50
2018-01-26T09:10:43.131Z,48.80
2018-01-26T09:13:11.080Z,46.50
2018-01-26T09:15:38.943Z,47.23
2018-01-26T09:18:06.802Z,46.70
2018-01-26T09:20:34.722Z,47.33
2018-01-26T09:23:02.609Z,48.57
2018-01-26T09:25:30.501Z,47.20
2018-01-26T09:27:58.372Z,47.60
2018-01-26T09:30:26.260Z,48.63
2018-01-26T09:32:54.136Z,45.63
2018-01-26T09:35:22.031Z,44.40
2018-01-26T09:37:50.047Z,49.13
2018-01-26T09:40:17.919Z,45.60
2018-01-26T09:42:45.811Z,46.40
2018-01-26T09:45:13.660Z,48.53
2018-01-26T09:47:41.580Z,53.20
2018-01-26T09:50:10.258Z,50.83
2018-01-26T09:52:39.909Z,48.70
2018-01-26T09:55:09.245Z,50.80
2018-01-26T09:57:37.163Z,50.10
2018-01-26T10:00:07.074Z,52.80
2018-01-26T10:02:35.339Z,49.77
2018-01-26T10:05:04.191Z,52.50
2018-01-26T10:07:33.120Z,51.33
2018-01-26T10:10:00.971Z,53.07
2018-01-26T10:12:28.916Z,52.17
2018-01-26T10:14:57.129Z,53.70
2018-01-26T10:17:25.079Z,51.63
2018-01-26T10:19:52.951Z,50.67
2018-01-26T10:22:20.997Z,51.90
2018-01-26T10:24:49.051Z,61.17
2018-01-26T10:27:16.927Z,55.40
2018-01-26T10:29:45.355Z,56.07
2018-01-26T10:32:13.235Z,60.97
2018-01-26T10:34:41.146Z,53.50
2018-01-26T10:37:09.031Z,51.93
2018-01-26T10:39:36.950Z,54.07
2018-01-26T10:42:04.814Z,61.73
2018-01-26T10:44:32.697Z,56.27
2018-01-26T10:47:00.595Z,55.10
2018-01-26T10:49:28.468Z,56.23
2018-01-26T10:51:56.355Z,59.20
2018-01-26T10:54:24.217Z,58.73
2018-01-26T10:56:52.084Z,58.00
2018-01-26T10:59:19.950Z,61.80
2018-01-26T11:01:47.822Z,55.93
2018-01-26T11:04:15.728Z,57.00
2018-01-26T11:06:43.597Z,58.20
2018-01-26T11:09:11.500Z,65.40
2018-01-26T11:11:39.384Z,61.37
2018-01-26T11:14:07.258Z,61.23
2018-01-26T11:16:35.204Z,57.87
2018-01-26T11:19:03.068Z,60.17
2018-01-26T11:21:30.948Z,60.30
2018-01-26T11:23:58.851Z,58.40
2018-01-26T11:26:26.696Z,58.10
2018-01-26T11:28:54.549Z,58.97
2018-01-26T11:31:22.424Z,59.20
2018-01-26T11:33:50.252Z,59.53
2018-01-26T11:36:18.219Z,58.00
2018-01-26T11:38:46.138Z,58.33
2018-01-26T11:41:13.992Z,55.67
2018-01-26T11:43:41.848Z,53.50
2018-01-26T11:46:09.761Z,55.17
2018-01-26T11:48:37.595Z,53.60
2018-01-26T11:51:05.451Z,59.30
2018-01-26T11:53:33.324Z,53.17
2018-01-26T11:56:01.176Z,53.20
2018-01-26T11:58:29.040Z,56.27
2018-01-26T12:00:56.929Z,51.03
2018-01-26T12:03:24.797Z,55.17
2018-01-26T12:05:52.640Z,51.10
2018-01-26T12:08:20.522Z,46.80
2018-01-26T12:10:48.372Z,42.90
2018-01-26T12:13:16.203Z,44.00
2018-01-26T12:15:44.136Z,41.00
2018-01-26T12:18:12.035Z,33.93
2018-01-26T12:20:39.871Z,35.33
2018-01-26T12:23:07.767Z,32.63
2018-01-26T12:25:35.675Z,33.00
2018-01-26T12:28:03.542Z,30.30
2018-01-26T12:30:31.428Z,27.93
2018-01-26T12:32:59.258Z,28.80
2018-01-26T12:35:27.122Z,24.53
2018-01-26T12:37:54.984Z,25.53
2018-01-26T12:40:22.829Z,23.47
2018-01-26T12:42:50.669Z,29.20
2018-01-26T12:45:18.532Z,21.90
2018-01-26T12:47:46.364Z,24.97
2018-01-26T12:50:14.300Z,17.90
2018-01-26T12:52:42.198Z,21.37
2018-01-26T12:55:10.088Z,18.57
2018-01-26T12:57:37.969Z,16.70
2018-01-26T13:00:05.852Z,17.13
2018-01-26T13:02:33.713Z,13.63
2018-01-26T13:05:01.571Z,15.53
2018-01-26T13:07:29.457Z,13.70
2018-01-26T13:09:57.295Z,19.17
2018-01-26T13:12:25.160Z,13.17
2018-01-26T13:14:53.057Z,12.03
2018-01-26T13:17:20.932Z,13.93
2018-01-26T13:19:48.815Z,15.30
2018-01-26T13:22:16.684Z,15.73
2018-01-26T13:24:44.524Z,19.57
2018-01-26T13:27:12.864Z,14.40
2018-01-26T13:29:40.755Z,14.00
2018-01-26T13:32:08.613Z,12.30
2018-01-26T13:34:36.472Z,15.13
2018-01-26T13:37:04.369Z,11.17
2018-01-26T13:39:32.217Z,11.23
2018-01-26T13:42:00.097Z,12.37
2018-01-26T13:44:27.982Z,10.07
2018-01-26T13:46:55.908Z,8.70
2018-01-26T13:49:23.767Z,9.50
2018-01-26T13:51:51.667Z,11.00
2018-01-26T13:54:19.527Z,11.97
2018-01-26T13:56:47.355Z,13.20
2018-01-26T13:59:16.018Z,11.33
2018-01-26T14:01:43.880Z,10.47
2018-01-26T14:04:11.728Z,11.70
2018-01-26T14:06:39.600Z,17.30
2018-01-26T14:09:07.513Z,13.37
2018-01-26T14:11:35.374Z,9.70
2018-01-26T14:14:03.246Z,13.33
2018-01-26T14:16:31.161Z,10.63
2018-01-26T14:18:59.059Z,13.90
2018-01-26T14:21:27.007Z,9.63
2018-01-26T14:23:54.852Z,10.57
2018-01-26T14:26:22.728Z,9.20
2018-01-26T14:28:50.572Z,11.40
2018-01-26T14:31:18.449Z,9.60
2018-01-26T14:33:46.315Z,9.00
2018-01-26T14:36:14.147Z,8.87
2018-01-26T14:38:42.067Z,7.30
2018-01-26T14:41:09.903Z,8.00
2018-01-26T14:43:37.796Z,8.20
2018-01-26T14:46:05.702Z,11.93
2018-01-26T14:48:33.568Z,10.97
2018-01-26T14:51:01.437Z,9.30
2018-01-26T14:53:29.306Z,11.33
2018-01-26T14:55:57.177Z,13.57
2018-01-26T14:58:25.036Z,12.43
2018-01-26T15:00:52.904Z,12.40
2018-01-26T15:03:20.812Z,13.33
2018-01-26T15:05:48.682Z,18.03
2018-01-26T15:08:16.511Z,16.83
2018-01-26T15:10:44.375Z,22.33
2018-01-26T15:13:12.252Z,15.00
2018-01-26T15:15:40.216Z,14.53
2018-01-26T15:18:08.169Z,15.47
2018-01-26T15:20:35.999Z,10.40
2018-01-26T15:23:03.915Z,13.97
2018-01-26T15:25:31.794Z,13.53
2018-01-26T15:27:59.664Z,10.00
2018-01-26T15:30:27.546Z,11.03
2018-01-26T15:32:55.505Z,9.30
2018-01-26T15:35:23.350Z,11.57
2018-01-26T15:37:51.229Z,13.53
2018-01-26T15:40:19.113Z,11.80
2018-01-26T15:42:46.952Z,12.40
2018-01-26T15:45:14.867Z,14.93
2018-01-26T15:47:42.751Z,12.73
2018-01-26T15:50:10.620Z,12.77
2018-01-26T15:52:38.496Z,19.17
2018-01-26T15:55:06.352Z,16.07
2018-01-26T15:57:34.408Z,13.40
2018-01-26T16:00:02.279Z,16.60
2018-01-26T16:02:30.150Z,10.83
2018-01-26T16:04:58.041Z,13.83
2018-01-26T16:07:27.204Z,14.90
2018-01-26T16:09:55.122Z,15.07
2018-01-26T16:12:22.971Z,10.77
2018-01-26T16:14:50.832Z,14.60
2018-01-26T16:17:18.797Z,17.80
2018-01-26T16:19:46.626Z,23.90
2018-01-26T16:22:17.569Z,12.70
2018-01-26T16:24:45.619Z,11.47
2018-01-26T16:27:13.544Z,12.00
2018-01-26T16:29:41.492Z,16.90
2018-01-26T16:32:09.389Z,21.80
2018-01-26T16:34:37.315Z,11.10
2018-01-26T16:37:05.164Z,14.73
2018-01-26T16:39:33.036Z,15.03
2018-01-26T16:42:00.919Z,15.00
2018-01-26T16:44:28.888Z,15.83
2018-01-26T16:46:56.807Z,17.50
2018-01-26T16:49:24.661Z,17.87
2018-01-26T16:51:52.527Z,15.40
2018-01-26T16:54:20.414Z,15.97
2018-01-26T16:56:48.259Z,19.77
2018-01-26T16:59:16.095Z,22.97
2018-01-26T17:01:43.958Z,21.70
2018-01-26T17:04:11.788Z,16.80
2018-01-26T17:06:39.699Z,16.20
2018-01-26T17:09:07.582Z,17.27
2018-01-26T17:11:35.492Z,17.80
2018-01-26T17:14:03.464Z,15.50
2018-01-26T17:16:31.351Z,15.87
2018-01-26T17:18:59.232Z,13.60
2018-01-26T17:21:27.123Z,13.80
2018-01-26T17:23:54.992Z,15.77
2018-01-26T17:26:22.863Z,16.70
2018-01-26T17:28:50.747Z,18.13
2018-01-26T17:31:18.571Z,17.67
2018-01-26T17:33:46.400Z,15.23
2018-01-26T17:36:14.287Z,16.97
2018-01-26T17:38:42.712Z,18.20
2018-01-26T17:41:10.728Z,21.53
2018-01-26T17:43:38.572Z,22.97
2018-01-26T17:46:06.438Z,17.50
2018-01-26T17:48:34.317Z,18.33
2018-01-26T17:51:02.312Z,19.30
2018-01-26T17:53:30.215Z,22.10
2018-01-26T17:55:58.075Z,23.13
2018-01-26T17:58:26.089Z,18.90
2018-01-26T18:00:54.004Z,21.40
2018-01-26T18:03:21.887Z,20.27
2018-01-26T18:05:49.868Z,19.53
2018-01-26T18:08:17.771Z,17.93
2018-01-26T18:10:45.789Z,20.47
2018-01-26T18:13:13.664Z,19.23
2018-01-26T18:15:41.511Z,20.60
2018-01-26T18:18:09.427Z,16.97
2018-01-26T18:20:37.362Z,19.10
2018-01-26T18:23:05.243Z,17.43
2018-01-26T18:25:33.329Z,17.77
2018-01-26T18:28:01.227Z,22.47
2018-01-26T18:30:29.235Z,18.17
2018-01-26T18:32:57.059Z,17.83
2018-01-26T18:35:24.951Z,21.20
2018-01-26T18:37:52.877Z,19.10
2018-01-26T18:40:20.712Z,22.10
2018-01-26T18:42:48.711Z,22.07
2018-01-26T18:45:16.941Z,19.57
2018-01-26T18:47:44.770Z,22.10
2018-01-26T18:50:12.651Z,21.67
2018-01-26T18:52:40.502Z,20.40
2018-01-26T18:55:08.417Z,21.90
2018-01-26T18:57:36.321Z,23.57
2018-01-26T19:00:04.540Z,24.40
2018-01-26T19:02:32.552Z,23.00
2018-01-26T19:05:00.480Z,25.07
2018-01-26T19:07:28.411Z,25.43
2018-01-26T19:09:56.351Z,24.00
2018-01-26T19:12:24.243Z,24.30
2018-01-26T19:14:52.124Z,25.37
2018-01-26T19:17:19.984Z,24.87
2018-01-26T19:19:47.825Z,24.50
2018-01-26T19:22:17.035Z,23.77
2018-01-26T19:24:44.888Z,22.50
2018-01-26T19:27:12.756Z,24.80
2018-01-26T19:29:40.728Z,23.97
2018-01-26T19:32:08.802Z,23.23
2018-01-26T19:34:36.676Z,25.93
2018-01-26T19:37:04.533Z,25.60
2018-01-26T19:39:33.121Z,29.63
2018-01-26T19:42:01.103Z,60.43
2018-01-26T19:44:28.977Z,40.50
2018-01-26T19:46:56.812Z,37.43
2018-01-26T19:49:25.649Z,31.23
2018-01-26T19:51:53.545Z,39.80
2018-01-26T19:54:21.452Z,33.43
2018-01-26T19:56:49.398Z,39.20
2018-01-26T19:59:17.276Z,35.60
2018-01-26T20:01:45.169Z,29.60
2018-01-26T20:04:27.939Z,25.47
2018-01-26T20:07:07.964Z,32.87
2018-01-26T20:09:35.887Z,26.53
2018-01-26T20:12:09.995Z,26.20
2018-01-26T20:14:37.932Z,24.60
2018-01-26T20:17:05.767Z,24.43
2018-01-26T20:19:33.713Z,24.67
2018-01-26T20:22:01.629Z,25.20
2018-01-26T20:24:29.498Z,24.90
2018-01-26T20:26:57.385Z,27.83
2018-01-26T20:29:25.252Z,26.90
2018-01-26T20:31:53.131Z,27.57
2018-01-26T20:34:21.029Z,26.77
2018-01-26T20:36:48.871Z,28.03
2018-01-26T20:39:16.805Z,28.00
2018-01-26T20:41:44.661Z,30.07
2018-01-26T20:44:12.756Z,29.20
2018-01-26T20:46:40.648Z,28.83
2018-01-26T20:49:08.479Z,31.00
2018-01-26T20:51:36.342Z,28.30
2018-01-26T20:54:04.209Z,31.97
2018-01-26T20:56:32.115Z,26.90
2018-01-26T20:58:59.955Z,36.60
2018-01-26T21:01:27.877Z,26.13
2018-01-26T21:03:55.703Z,27.20
2018-01-26T21:06:23.544Z,29.47
2018-01-26T21:08:51.400Z,28.10
2018-01-26T21:11:19.262Z,31.63
2018-01-26T21:13:47.114Z,29.20
2018-01-26T21:16:14.977Z,30.63
2018-01-26T21:18:42.824Z,29.83
2018-01-26T21:21:10.660Z,33.57
2018-01-26T21:23:38.766Z,32.70
2018-01-26T21:26:06.699Z,26.33
2018-01-26T21:28:34.626Z,30.63
2018-01-26T21:31:02.700Z,29.60
2018-01-26T21:33:30.568Z,30.27
2018-01-26T21:35:58.412Z,29.80
2018-01-26T21:38:26.235Z,29.07
2018-01-26T21:40:54.113Z,28.77
2018-01-26T21:43:22.008Z,33.13
2018-01-26T21:45:49.867Z,28.53
2018-01-26T21:48:17.768Z,27.70
2018-01-26T21:50:45.632Z,28.20
2018-01-26T21:53:13.471Z,27.63
2018-01-26T21:55:41.323Z,28.33
2018-01-26T21:58:09.232Z,26.60
2018-01-26T22:00:37.076Z,27.70
2018-01-26T22:03:04.952Z,30.00
2018-01-26T22:05:32.784Z,27.33
2018-01-26T22:08:00.641Z,30.33
2018-01-26T22:10:28.521Z,30.93
2018-01-26T22:12:56.366Z,31.20
2018-01-26T22:15:24.782Z,31.13
2018-01-26T22:17:53.236Z,32.73
2018-01-26T22:20:21.470Z,32.40
2018-01-26T22:22:49.342Z,33.47
2018-01-26T22:25:17.244Z,34.50
2018-01-26T22:27:45.148Z,36.30
2018-01-26T22:30:13.012Z,33.80
2018-01-26T22:32:40.894Z,32.50
2018-01-26T22:35:08.728Z,30.40
2018-01-26T22:37:36.560Z,31.63
2018-01-26T22:40:04.460Z,31.17
2018-01-26T22:42:32.347Z,31.93
2018-01-26T22:45:00.207Z,31.60
2018-01-26T22:47:28.096Z,31.90
2018-01-26T22:49:55.921Z,33.50
2018-01-26T22:52:23.789Z,32.20
2018-01-26T22:54:51.656Z,33.90
2018-01-26T22:57:19.549Z,32.63
2018-01-26T22:59:47.383Z,33.70
2018-01-26T23:02:15.245Z,35.27
2018-01-26T23:04:43.076Z,34.30
2018-01-26T23:07:10.921Z,32.90
2018-01-26T23:09:38.799Z,35.27
2018-01-26T23:12:06.654Z,32.93
2018-01-26T23:14:34.492Z,35.40
2018-01-26T23:17:02.374Z,35.40
2018-01-26T23:19:30.199Z,36.13
2018-01-26T23:21:58.059Z,36.43
2018-01-26T23:24:25.997Z,35.70
2018-01-26T23:26:53.860Z,34.50
2018-01-26T23:29:21.709Z,37.30
2018-01-26T23:31:51.102Z,37.90
2018-01-26T23:34:18.991Z,35.07
2018-01-26T23:36:46.832Z,36.83
2018-01-26T23:39:14.697Z,37.20
2018-01-26T23:41:42.553Z,35.33
2018-01-26T23:44:10.421Z,35.70
2018-01-26T23:46:39.433Z,33.57
2018-01-26T23:49:07.276Z,36.97
2018-01-26T23:51:35.100Z,34.63
2018-01-26T23:54:02.956Z,34.80
2018-01-26T23:56:30.776Z,36.77
2018-01-26T23:58:58.612Z,36.00
